createdAt,value
2022-09-10T01:10:02.787Z,99.90
2022-09-10T01:13:16.434Z,99.90
2022-09-10T01:15:53.897Z,99.90
2022-09-10T01:18:34.076Z,99.90
2022-09-10T01:21:42.805Z,99.90
2022-09-10T01:24:43.779Z,99.90
2022-09-10T01:27:39.844Z,99.90
2022-09-10T01:30:14.434Z,99.90
2022-09-10T01:32:49.617Z,99.90
2022-09-10T01:35:25.329Z,99.90
2022-09-10T01:38:03.158Z,99.90
2022-09-10T01:40:32.200Z,99.90
2022-09-10T01:43:07.280Z,99.90
2022-09-10T01:45:44.054Z,99.90
2022-09-10T01:51:21.061Z,99.90
2022-09-10T01:54:26.214Z,99.90
2022-09-10T01:57:21.423Z,99.90
2022-09-10T02:00:10.903Z,99.90
2022-09-10T02:03:13.565Z,99.90
2022-09-10T03:35:03.639Z,99.90
2022-09-10T03:42:25.959Z,99.90
2022-09-10T03:44:53.079Z,99.90
2022-09-10T03:47:20.336Z,99.90
2022-09-10T04:58:42.277Z,99.90
2022-09-10T05:01:10.704Z,99.90
2022-09-10T05:03:38.703Z,99.90
2022-09-10T05:06:06.263Z,99.90
2022-09-10T05:08:33.481Z,99.90
2022-09-10T05:11:00.940Z,99.90
2022-09-10T05:13:28.624Z,99.90
2022-09-10T05:15:55.823Z,99.90
2022-09-10T05:18:22.936Z,99.90
2022-09-10T05:20:50.049Z,99.90
2022-09-10T05:23:17.417Z,99.90
2022-09-10T05:25:45.022Z,99.90
2022-09-10T05:28:12.329Z,99.90
2022-09-10T05:30:39.473Z,99.90
2022-09-10T05:33:06.703Z,99.90
2022-09-10T05:35:33.974Z,99.90
2022-09-10T05:38:01.458Z,99.90
2022-09-10T05:40:28.702Z,99.90
2022-09-10T05:42:56.285Z,99.90
2022-09-10T05:45:23.775Z,99.90
2022-09-10T05:47:50.956Z,99.90
2022-09-10T05:50:18.623Z,99.90
2022-09-10T05:52:46.302Z,99.90
2022-09-10T05:55:13.766Z,99.90
2022-09-10T05:57:40.992Z,99.90
2022-09-10T06:00:11.741Z,99.90
2022-09-10T06:02:39.158Z,99.90
2022-09-10T06:05:06.741Z,99.90
2022-09-10T06:07:34.265Z,99.90
2022-09-10T06:10:01.688Z,99.90
2022-09-10T06:12:28.883Z,99.90
2022-09-10T06:14:56.036Z,99.90
2022-09-10T06:17:23.187Z,99.90
2022-09-10T06:19:50.337Z,99.90
2022-09-10T06:22:17.738Z,99.90
2022-09-10T06:24:44.951Z,99.90
2022-09-10T06:27:12.212Z,99.90
2022-09-10T06:29:39.331Z,99.90
2022-09-10T06:32:06.559Z,99.90
2022-09-10T06:34:33.782Z,99.90
2022-09-10T06:37:00.972Z,99.90
2022-09-10T06:39:28.125Z,99.90
2022-09-10T06:41:55.312Z,99.90
2022-09-10T06:44:22.547Z,99.90
2022-09-10T06:47:39.055Z,99.90
2022-09-10T06:49:37.309Z,99.90
2022-09-10T06:52:04.657Z,99.90
2022-09-10T06:54:31.860Z,99.90
2022-09-10T06:56:59.092Z,99.90
2022-09-10T06:59:26.238Z,99.90
2022-09-10T07:01:53.385Z,99.90
2022-09-10T07:04:20.606Z,99.90
2022-09-10T07:06:47.795Z,99.90
2022-09-10T07:09:15.736Z,99.90
2022-09-10T07:11:42.940Z,99.90
2022-09-10T07:14:14.162Z,99.90
2022-09-10T07:16:41.641Z,99.90
2022-09-10T07:19:08.912Z,99.90
2022-09-10T07:21:36.082Z,99.90
2022-09-10T07:24:04.469Z,99.90
2022-09-10T07:26:32.106Z,99.90
2022-09-10T07:28:59.933Z,99.90
2022-09-10T07:31:33.720Z,99.90
2022-09-10T07:34:04.310Z,99.90
2022-09-10T07:36:32.174Z,99.90
2022-09-10T07:38:59.613Z,99.90
2022-09-10T07:41:27.039Z,99.90
2022-09-10T07:43:54.813Z,99.90
2022-09-10T07:46:23.623Z,99.90
2022-09-10T07:48:59.359Z,99.90
2022-09-10T07:51:30.055Z,99.90
2022-09-10T07:53:59.253Z,99.90
2022-09-10T07:56:26.678Z,99.90
2022-09-10T07:58:54.567Z,99.90
2022-09-10T08:01:22.091Z,99.90
2022-09-10T08:03:49.363Z,99.90
2022-09-10T08:06:17.227Z,99.90
2022-09-10T08:08:44.426Z,99.90
2022-09-10T08:11:18.386Z,99.90
2022-09-10T08:13:50.212Z,99.90
2022-09-10T08:16:21.606Z,99.90
2022-09-10T08:18:49.889Z,99.90
2022-09-10T08:21:19.299Z,99.90
2022-09-10T08:23:51.523Z,99.90
2022-09-10T08:26:19.314Z,99.90
2022-09-10T08:28:47.423Z,99.90
2022-09-10T08:31:14.785Z,99.90
2022-09-10T08:33:53.489Z,99.90
2022-09-10T08:36:21.602Z,99.90
2022-09-10T08:38:49.872Z,99.90
2022-09-10T08:41:25.687Z,99.90
2022-09-10T08:44:04.699Z,99.90
2022-09-10T08:46:47.561Z,99.90
2022-09-10T08:49:36.123Z,99.90
2022-09-10T08:52:15.266Z,99.90
2022-09-10T08:54:59.979Z,99.90
2022-09-10T08:57:41.791Z,99.90
2022-09-10T09:00:17.592Z,99.90
2022-09-10T09:03:10.103Z,99.90
2022-09-10T09:05:54.981Z,99.90
2022-09-10T10:01:06.393Z,99.90
2022-09-10T10:03:47.594Z,99.90
2022-09-10T10:06:17.140Z,99.90
2022-09-10T10:09:02.550Z,99.90
2022-09-10T10:11:51.997Z,99.90
2022-09-10T10:14:19.163Z,99.90
2022-09-10T10:16:47.909Z,99.90
2022-09-10T10:19:33.777Z,99.90
2022-09-10T10:22:16.219Z,99.90
2022-09-10T10:24:45.725Z,99.90
2022-09-10T10:27:36.750Z,99.90
2022-09-10T10:30:19.245Z,99.90
2022-09-10T10:32:53.513Z,99.90
2022-09-10T10:35:58.362Z,99.90
2022-09-10T10:38:32.354Z,99.90
2022-09-10T10:41:20.235Z,99.90
2022-09-10T10:44:29.142Z,99.90
2022-09-10T10:47:59.975Z,99.90
2022-09-10T10:50:53.713Z,99.90
2022-09-10T10:56:27.928Z,99.90
2022-09-10T10:59:15.259Z,99.90
2022-09-10T11:01:51.862Z,99.90
2022-09-10T11:04:26.407Z,99.60
2022-09-10T11:07:13.654Z,97.40
2022-09-10T11:10:12.021Z,96.10
2022-09-10T11:13:04.544Z,99.90
2022-09-10T11:15:44.374Z,98.50
2022-09-10T11:18:54.597Z,97.90
2022-09-10T11:22:03.420Z,97.90
2022-09-10T11:24:45.648Z,96.90
2022-09-10T11:27:38.672Z,95.70
2022-09-10T11:30:17.724Z,92.90
2022-09-10T11:33:01.577Z,92.80
2022-09-10T11:35:57.229Z,92.70
2022-09-10T11:38:54.726Z,94.10
2022-09-10T11:41:30.683Z,94.20
2022-09-10T11:44:16.396Z,92.60
2022-09-10T11:49:48.210Z,95.60
2022-09-10T11:52:18.178Z,95.00
2022-09-10T11:54:46.215Z,94.90
2022-09-10T11:57:25.299Z,94.90
2022-09-10T12:00:15.591Z,96.30
2022-09-10T12:03:31.889Z,95.80
2022-09-10T12:06:09.418Z,96.30
2022-09-10T12:09:24.314Z,97.00
2022-09-10T12:12:13.461Z,98.40
2022-09-10T12:14:41.652Z,99.20
2022-09-10T12:17:34.013Z,99.10
2022-09-10T12:20:05.822Z,98.50
2022-09-10T12:22:36.644Z,95.80
2022-09-10T12:25:26.296Z,96.00
2022-09-10T12:28:02.458Z,95.90
2022-09-10T12:30:29.909Z,96.50
2022-09-10T12:33:21.756Z,95.20
2022-09-10T12:35:50.844Z,97.10
2022-09-10T12:39:13.999Z,97.30
2022-09-10T12:41:41.101Z,95.50
2022-09-10T12:44:34.512Z,96.40
2022-09-10T12:47:16.986Z,95.90
2022-09-10T12:50:05.184Z,96.00
2022-09-10T12:52:35.382Z,95.70
2022-09-10T12:55:41.205Z,95.80
2022-09-10T12:58:26.986Z,97.40
2022-09-10T13:00:56.834Z,98.90
2022-09-10T13:03:30.361Z,98.00
2022-09-10T13:06:05.555Z,98.50
2022-09-10T13:08:43.579Z,99.80
2022-09-10T13:11:22.260Z,99.90
2022-09-10T13:14:02.168Z,99.90
2022-09-10T13:16:29.288Z,99.90
2022-09-10T13:19:14.988Z,99.90
2022-09-10T13:21:44.906Z,99.90
2022-09-10T13:24:34.043Z,99.90
2022-09-10T13:27:21.861Z,99.20
2022-09-10T13:30:11.947Z,99.10
2022-09-10T13:32:49.118Z,99.90
2022-09-10T13:35:19.397Z,99.90
2022-09-10T13:38:10.896Z,99.40
2022-09-10T13:41:27.641Z,99.90
2022-09-10T13:44:13.533Z,98.60
2022-09-10T13:46:50.321Z,98.40
2022-09-10T13:49:52.459Z,99.30
2022-09-10T13:52:29.140Z,99.40
2022-09-10T13:54:59.455Z,97.10
2022-09-10T13:57:31.424Z,96.50
2022-09-10T14:00:07.939Z,96.20
2022-09-10T14:02:47.508Z,95.10
2022-09-10T14:05:51.966Z,94.30
2022-09-10T14:24:48.396Z,92.30
2022-09-10T14:27:27.218Z,91.60
2022-09-10T14:30:24.055Z,92.40
2022-09-10T14:32:52.492Z,91.70
2022-09-10T14:35:45.484Z,92.50
2022-09-10T14:38:31.008Z,93.00
2022-09-10T14:41:25.703Z,93.60
2022-09-10T14:44:23.738Z,93.40
2022-09-10T14:46:59.498Z,94.00
2022-09-10T14:49:34.215Z,95.50
2022-09-10T14:54:33.308Z,92.60
2022-09-10T14:57:16.045Z,92.40
2022-09-10T14:59:45.941Z,92.40
2022-09-10T15:02:27.448Z,91.00
2022-09-10T15:04:55.388Z,91.80
2022-09-10T15:07:22.684Z,92.70
2022-09-10T15:09:49.979Z,93.30
2022-09-10T15:12:25.851Z,94.70
2022-09-10T15:14:53.100Z,96.00
2022-09-10T15:17:20.710Z,98.00
2022-09-10T15:19:47.935Z,98.50
2022-09-10T15:22:24.278Z,99.30
2022-09-10T15:25:09.237Z,97.80
2022-09-10T15:27:37.869Z,98.90
2022-09-10T15:30:06.407Z,98.40
2022-09-10T15:32:33.588Z,98.50
2022-09-10T15:35:00.807Z,98.60
2022-09-10T15:37:28.071Z,98.30
2022-09-10T15:39:55.256Z,99.30
2022-09-10T15:42:22.500Z,99.90
2022-09-10T15:44:49.809Z,99.90
2022-09-10T15:47:16.957Z,99.90
2022-09-10T15:49:44.220Z,99.90
2022-09-10T15:52:11.449Z,99.90
2022-09-10T15:54:38.869Z,99.90
2022-09-10T15:57:06.227Z,99.90
2022-09-10T15:59:33.581Z,99.90
2022-09-10T16:02:00.871Z,99.90
2022-09-10T16:04:30.617Z,99.90
2022-09-10T16:06:59.872Z,99.90
2022-09-10T16:09:27.518Z,99.90
2022-09-10T16:11:54.781Z,99.90
2022-09-10T16:14:22.047Z,99.90
2022-09-10T16:16:49.374Z,99.90
2022-09-10T16:19:16.889Z,99.90
2022-09-10T16:21:44.106Z,99.90
2022-09-10T16:24:11.815Z,99.90
2022-09-10T16:26:41.657Z,99.90
2022-09-10T16:29:19.746Z,99.90
2022-09-10T16:31:46.965Z,99.90
2022-09-10T16:34:20.107Z,99.90
2022-09-10T16:36:48.593Z,99.90
2022-09-10T16:39:18.254Z,99.90
2022-09-10T16:41:49.558Z,99.90
2022-09-10T16:44:18.745Z,99.90
2022-09-10T16:46:46.631Z,99.90
2022-09-10T16:49:16.512Z,99.90
2022-09-10T16:51:47.005Z,99.90
2022-09-10T16:54:15.005Z,99.90
2022-09-10T16:56:45.469Z,99.90
2022-09-10T16:59:18.477Z,99.90
2022-09-10T17:01:46.899Z,99.90
2022-09-10T17:04:27.798Z,99.90
2022-09-10T17:06:57.731Z,99.90
2022-09-10T17:09:25.341Z,99.90
2022-09-10T17:11:52.886Z,99.90
2022-09-10T17:14:20.093Z,99.90
2022-09-10T17:16:47.345Z,99.90
2022-09-10T17:19:21.343Z,99.90
2022-09-10T17:21:50.900Z,99.90
2022-09-10T17:24:21.855Z,99.90
2022-09-10T17:26:50.751Z,99.90
2022-09-10T17:29:21.864Z,99.90
2022-09-10T17:31:50.442Z,99.90
2022-09-10T17:34:18.514Z,99.90
2022-09-10T17:36:47.674Z,99.90
2022-09-10T17:39:16.415Z,99.90
2022-09-10T17:41:44.672Z,99.90
2022-09-10T17:44:12.898Z,99.90
2022-09-10T17:46:40.437Z,99.90
2022-09-10T17:49:07.727Z,99.90
2022-09-10T17:51:35.647Z,99.90
2022-09-10T17:54:03.572Z,99.90
2022-09-10T17:56:31.789Z,99.90
2022-09-10T17:59:02.917Z,99.90
2022-09-10T18:01:37.091Z,99.90
2022-09-10T18:04:06.142Z,99.90
2022-09-10T18:06:38.010Z,99.90
2022-09-10T18:09:06.721Z,99.90
2022-09-10T18:11:39.544Z,99.90
2022-09-10T18:14:07.567Z,99.90
2022-09-10T18:16:36.310Z,99.90
2022-09-10T18:19:14.321Z,99.90
2022-09-10T18:21:43.901Z,99.90
2022-09-10T18:24:15.848Z,99.90
2022-09-10T18:26:47.517Z,99.90
2022-09-10T18:29:25.154Z,99.90
2022-09-10T18:31:56.322Z,99.90
2022-09-10T18:34:27.539Z,99.90
2022-09-10T18:36:58.608Z,99.90
2022-09-10T18:39:29.124Z,99.90
2022-09-10T18:41:57.076Z,99.90
2022-09-10T18:44:29.466Z,99.90
2022-09-10T18:46:56.689Z,99.90
2022-09-10T18:49:25.977Z,99.90
2022-09-10T18:51:55.939Z,99.90
2022-09-10T18:54:24.799Z,99.90
2022-09-10T18:56:52.005Z,99.90
2022-09-10T18:59:22.143Z,99.90
2022-09-10T19:01:52.824Z,99.90
2022-09-10T19:04:24.176Z,99.90
2022-09-10T19:06:52.381Z,99.90
2022-09-10T19:09:29.503Z,99.90
2022-09-10T19:11:59.414Z,99.90
2022-09-10T19:14:30.629Z,99.90
2022-09-10T19:16:59.982Z,99.90
2022-09-10T19:19:33.279Z,99.90
2022-09-10T19:22:03.151Z,99.90
2022-09-10T19:24:53.908Z,99.90
2022-09-10T19:27:18.405Z,99.90
2022-09-10T19:29:45.597Z,99.90
2022-09-10T19:32:12.784Z,99.90
2022-09-10T19:34:40.145Z,99.90
2022-09-10T19:37:07.352Z,99.90
2022-09-10T19:39:34.611Z,99.90
2022-09-10T19:42:01.735Z,99.90
2022-09-10T19:44:28.922Z,99.90
2022-09-10T19:46:56.124Z,99.90
2022-09-10T19:49:23.283Z,99.90
2022-09-10T19:51:50.378Z,99.90
2022-09-10T19:54:17.651Z,99.90
2022-09-10T19:56:44.954Z,99.90
2022-09-10T19:59:12.155Z,99.90
2022-09-10T20:01:42.710Z,99.90
2022-09-10T20:04:12.001Z,99.90
2022-09-10T20:06:40.335Z,99.90
2022-09-10T20:09:09.866Z,99.90
2022-09-10T20:11:38.115Z,99.90
2022-09-10T20:14:12.832Z,99.90
2022-09-10T20:16:43.920Z,99.90
2022-09-10T20:19:15.085Z,99.90
2022-09-10T20:21:42.473Z,99.90
2022-09-10T20:24:10.645Z,99.90
2022-09-10T20:26:39.256Z,99.90
2022-09-10T20:29:11.557Z,99.90
2022-09-10T20:31:40.389Z,99.90
2022-09-10T20:34:12.619Z,99.90
2022-09-10T20:36:40.378Z,99.90
2022-09-10T20:39:08.465Z,99.90
2022-09-10T20:41:35.956Z,99.90
2022-09-10T20:44:03.615Z,99.90
2022-09-10T20:46:31.689Z,99.90
2022-09-10T20:49:01.063Z,99.90
2022-09-10T20:51:32.624Z,99.90
2022-09-10T20:54:00.307Z,99.90
2022-09-10T20:56:28.068Z,99.90
2022-09-10T20:58:56.209Z,99.90
2022-09-10T21:01:26.554Z,99.90
2022-09-10T21:03:57.567Z,99.90
2022-09-10T21:06:28.681Z,99.90
2022-09-10T21:08:56.487Z,99.90
2022-09-10T21:11:27.743Z,99.90
2022-09-10T21:13:57.755Z,99.90
2022-09-10T21:16:28.631Z,99.90
2022-09-10T21:19:01.942Z,99.90
2022-09-10T21:21:35.042Z,99.90
2022-09-10T21:24:10.219Z,99.90
2022-09-10T21:26:39.915Z,99.90
2022-09-10T21:29:11.871Z,99.90
2022-09-10T21:31:39.295Z,99.90
2022-09-10T21:34:06.929Z,99.90
2022-09-10T21:36:37.235Z,99.90
2022-09-10T21:39:12.978Z,99.90
2022-09-10T21:41:50.906Z,99.90
2022-09-10T21:44:21.747Z,99.90
2022-09-10T21:46:49.960Z,99.90
2022-09-10T21:49:18.540Z,99.90
2022-09-10T21:51:46.179Z,99.90
2022-09-10T21:54:16.888Z,99.90
2022-09-10T21:56:44.315Z,99.90
2022-09-10T21:59:12.146Z,99.90
2022-09-10T22:01:43.894Z,99.90
2022-09-10T22:04:12.562Z,99.90
2022-09-10T22:06:39.815Z,99.90
2022-09-10T22:09:12.770Z,99.90
2022-09-10T22:11:44.823Z,99.90
2022-09-10T22:14:15.858Z,99.90
2022-09-10T22:16:44.111Z,99.90
2022-09-10T22:19:19.999Z,99.90
2022-09-10T22:21:47.323Z,99.90
2022-09-10T22:24:16.100Z,99.90
2022-09-10T22:26:44.531Z,99.90
2022-09-10T22:29:14.817Z,99.90
2022-09-10T22:31:42.025Z,99.90
2022-09-10T22:34:14.046Z,99.90
2022-09-10T22:36:44.382Z,99.90
2022-09-10T22:39:15.964Z,99.90
2022-09-10T22:41:44.474Z,99.90
2022-09-10T22:44:12.685Z,99.90
2022-09-10T22:46:41.069Z,99.90
2022-09-10T22:49:09.668Z,99.90
2022-09-10T22:51:40.175Z,99.90
2022-09-10T22:54:08.240Z,99.90
2022-09-10T22:56:35.602Z,99.90
2022-09-10T22:59:04.530Z,99.90
2022-09-10T23:01:36.974Z,99.90
2022-09-10T23:04:07.700Z,99.90
2022-09-10T23:06:38.021Z,99.90
2022-09-10T23:09:14.411Z,99.90
2022-09-10T23:11:42.664Z,99.90
2022-09-10T23:14:15.019Z,99.90
2022-09-10T23:16:45.487Z,99.90
2022-09-10T23:19:17.854Z,99.90
2022-09-10T23:21:49.668Z,99.90
2022-09-10T23:24:20.274Z,99.90
2022-09-10T23:26:48.144Z,99.90
2022-09-10T23:29:16.070Z,99.90
2022-09-10T23:31:44.870Z,99.90
2022-09-10T23:34:18.219Z,99.90
2022-09-10T23:36:48.753Z,99.90
2022-09-10T23:39:23.435Z,99.90
2022-09-10T23:41:53.757Z,99.90
2022-09-10T23:44:21.211Z,99.90
2022-09-10T23:46:48.967Z,99.90
2022-09-10T23:49:16.954Z,99.90
2022-09-10T23:51:44.496Z,99.90
2022-09-10T23:54:12.379Z,99.90
2022-09-10T23:56:40.068Z,99.90
2022-09-10T23:59:08.660Z,99.90
